sensor_id;sensor_type;location;lat;lon;timestamp;P1;durP1;ratioP1;P2;durP2;ratioP2
44456;SDS011;30159;49.316;8.558;2022-08-19T00:01:54;13.73;;;11.23;;
44456;SDS011;30159;49.316;8.558;2022-08-19T00:04:25;17.40;;;12.10;;
44456;SDS011;30159;49.316;8.558;2022-08-19T00:06:54;14.73;;;12.80;;
44456;SDS011;30159;49.316;8.558;2022-08-19T00:09:21;15.63;;;12.10;;
44456;SDS011;30159;49.316;8.558;2022-08-19T00:11:49;15.57;;;12.57;;
44456;SDS011;30159;49.316;8.558;2022-08-19T00:14:16;14.33;;;12.00;;
44456;SDS011;30159;49.316;8.558;2022-08-19T00:16:45;13.77;;;11.57;;
44456;SDS011;30159;49.316;8.558;2022-08-19T00:19:13;21.60;;;14.20;;
44456;SDS011;30159;49.316;8.558;2022-08-19T00:21:41;15.77;;;12.60;;
44456;SDS011;30159;49.316;8.558;2022-08-19T00:24:09;18.87;;;12.47;;
44456;SDS011;30159;49.316;8.558;2022-08-19T00:26:38;16.77;;;13.67;;
44456;SDS011;30159;49.316;8.558;2022-08-19T00:29:10;16.57;;;13.80;;
44456;SDS011;30159;49.316;8.558;2022-08-19T00:31:39;16.13;;;12.70;;
44456;SDS011;30159;49.316;8.558;2022-08-19T00:34:08;15.00;;;12.80;;
44456;SDS011;30159;49.316;8.558;2022-08-19T00:36:34;16.30;;;13.70;;
44456;SDS011;30159;49.316;8.558;2022-08-19T00:39:03;17.63;;;14.90;;
44456;SDS011;30159;49.316;8.558;2022-08-19T00:41:30;16.13;;;13.40;;
44456;SDS011;30159;49.316;8.558;2022-08-19T00:43:58;17.53;;;14.17;;
44456;SDS011;30159;49.316;8.558;2022-08-19T00:46:27;14.40;;;12.60;;
44456;SDS011;30159;49.316;8.558;2022-08-19T00:48:54;15.97;;;13.47;;
44456;SDS011;30159;49.316;8.558;2022-08-19T00:51:21;16.43;;;13.77;;
44456;SDS011;30159;49.316;8.558;2022-08-19T00:53:50;14.93;;;13.20;;
44456;SDS011;30159;49.316;8.558;2022-08-19T00:56:18;18.53;;;13.27;;
44456;SDS011;30159;49.316;8.558;2022-08-19T00:58:44;15.47;;;13.23;;
44456;SDS011;30159;49.316;8.558;2022-08-19T01:01:11;16.23;;;14.50;;
44456;SDS011;30159;49.316;8.558;2022-08-19T01:03:39;18.83;;;14.30;;
44456;SDS011;30159;49.316;8.558;2022-08-19T01:06:06;16.47;;;13.73;;
44456;SDS011;30159;49.316;8.558;2022-08-19T01:08:33;18.10;;;14.57;;
44456;SDS011;30159;49.316;8.558;2022-08-19T01:11:00;19.47;;;16.00;;
44456;SDS011;30159;49.316;8.558;2022-08-19T01:13:28;16.20;;;13.77;;
44456;SDS011;30159;49.316;8.558;2022-08-19T01:15:59;18.20;;;15.03;;
44456;SDS011;30159;49.316;8.558;2022-08-19T01:18:28;21.30;;;15.70;;
44456;SDS011;30159;49.316;8.558;2022-08-19T01:20:56;17.00;;;14.83;;
44456;SDS011;30159;49.316;8.558;2022-08-19T01:23:27;19.20;;;14.90;;
44456;SDS011;30159;49.316;8.558;2022-08-19T01:26:08;21.60;;;15.80;;
44456;SDS011;30159;49.316;8.558;2022-08-19T01:28:37;20.53;;;15.40;;
44456;SDS011;30159;49.316;8.558;2022-08-19T01:31:03;20.80;;;15.33;;
44456;SDS011;30159;49.316;8.558;2022-08-19T01:33:30;17.63;;;15.60;;
44456;SDS011;30159;49.316;8.558;2022-08-19T01:36:02;18.90;;;15.20;;
44456;SDS011;30159;49.316;8.558;2022-08-19T01:38:34;17.10;;;14.87;;
44456;SDS011;30159;49.316;8.558;2022-08-19T01:41:02;17.07;;;14.63;;
44456;SDS011;30159;49.316;8.558;2022-08-19T01:43:29;18.07;;;16.17;;
44456;SDS011;30159;49.316;8.558;2022-08-19T01:45:56;19.70;;;15.70;;
44456;SDS011;30159;49.316;8.558;2022-08-19T01:48:22;16.83;;;14.90;;
44456;SDS011;30159;49.316;8.558;2022-08-19T01:50:49;16.20;;;14.40;;
44456;SDS011;30159;49.316;8.558;2022-08-19T01:53:15;19.50;;;14.47;;
44456;SDS011;30159;49.316;8.558;2022-08-19T01:55:43;18.90;;;14.13;;
44456;SDS011;30159;49.316;8.558;2022-08-19T01:58:11;23.00;;;15.20;;
44456;SDS011;30159;49.316;8.558;2022-08-19T02:00:40;15.57;;;13.97;;
44456;SDS011;30159;49.316;8.558;2022-08-19T02:03:07;17.27;;;14.73;;
44456;SDS011;30159;49.316;8.558;2022-08-19T02:05:36;19.00;;;14.87;;
44456;SDS011;30159;49.316;8.558;2022-08-19T02:08:03;20.83;;;15.90;;
44456;SDS011;30159;49.316;8.558;2022-08-19T02:10:30;16.27;;;14.40;;
44456;SDS011;30159;49.316;8.558;2022-08-19T02:12:58;17.90;;;14.30;;
44456;SDS011;30159;49.316;8.558;2022-08-19T02:15:25;18.03;;;16.10;;
44456;SDS011;30159;49.316;8.558;2022-08-19T02:17:51;20.80;;;15.90;;
44456;SDS011;30159;49.316;8.558;2022-08-19T02:20:18;16.60;;;14.80;;
44456;SDS011;30159;49.316;8.558;2022-08-19T02:22:44;19.80;;;16.07;;
44456;SDS011;30159;49.316;8.558;2022-08-19T02:25:11;17.70;;;14.60;;
44456;SDS011;30159;49.316;8.558;2022-08-19T02:27:39;17.90;;;15.17;;
44456;SDS011;30159;49.316;8.558;2022-08-19T02:30:10;18.27;;;16.30;;
44456;SDS011;30159;49.316;8.558;2022-08-19T02:32:38;18.73;;;15.97;;
44456;SDS011;30159;49.316;8.558;2022-08-19T02:35:05;18.23;;;15.77;;
44456;SDS011;30159;49.316;8.558;2022-08-19T02:37:32;19.30;;;15.17;;
44456;SDS011;30159;49.316;8.558;2022-08-19T02:40:17;15.13;;;13.63;;
44456;SDS011;30159;49.316;8.558;2022-08-19T02:42:44;18.77;;;15.13;;
44456;SDS011;30159;49.316;8.558;2022-08-19T02:45:12;17.47;;;14.50;;
44456;SDS011;30159;49.316;8.558;2022-08-19T02:47:39;16.63;;;14.87;;
44456;SDS011;30159;49.316;8.558;2022-08-19T02:50:06;18.50;;;16.57;;
44456;SDS011;30159;49.316;8.558;2022-08-19T02:52:34;24.67;;;14.80;;
44456;SDS011;30159;49.316;8.558;2022-08-19T02:55:01;18.37;;;15.37;;
44456;SDS011;30159;49.316;8.558;2022-08-19T02:57:29;18.60;;;14.80;;
44456;SDS011;30159;49.316;8.558;2022-08-19T02:59:57;17.23;;;14.93;;
44456;SDS011;30159;49.316;8.558;2022-08-19T03:02:25;18.87;;;16.50;;
44456;SDS011;30159;49.316;8.558;2022-08-19T03:04:52;22.07;;;16.60;;
44456;SDS011;30159;49.316;8.558;2022-08-19T03:07:19;20.10;;;15.70;;
44456;SDS011;30159;49.316;8.558;2022-08-19T03:09:45;21.90;;;17.17;;
44456;SDS011;30159;49.316;8.558;2022-08-19T03:12:12;19.97;;;15.57;;
44456;SDS011;30159;49.316;8.558;2022-08-19T03:14:39;21.90;;;17.37;;
44456;SDS011;30159;49.316;8.558;2022-08-19T03:17:06;18.50;;;16.00;;
44456;SDS011;30159;49.316;8.558;2022-08-19T03:19:34;18.07;;;15.37;;
44456;SDS011;30159;49.316;8.558;2022-08-19T03:22:00;23.13;;;17.10;;
44456;SDS011;30159;49.316;8.558;2022-08-19T03:24:27;21.67;;;17.80;;
44456;SDS011;30159;49.316;8.558;2022-08-19T03:26:54;23.70;;;16.13;;
44456;SDS011;30159;49.316;8.558;2022-08-19T03:29:22;21.33;;;16.93;;
44456;SDS011;30159;49.316;8.558;2022-08-19T03:31:50;19.83;;;16.07;;
44456;SDS011;30159;49.316;8.558;2022-08-19T03:34:18;21.03;;;17.70;;
44456;SDS011;30159;49.316;8.558;2022-08-19T03:36:48;24.13;;;16.97;;
44456;SDS011;30159;49.316;8.558;2022-08-19T03:39:15;21.60;;;17.30;;
44456;SDS011;30159;49.316;8.558;2022-08-19T03:41:42;23.67;;;17.10;;
44456;SDS011;30159;49.316;8.558;2022-08-19T03:44:10;19.43;;;16.40;;
44456;SDS011;30159;49.316;8.558;2022-08-19T03:46:37;21.10;;;17.07;;
44456;SDS011;30159;49.316;8.558;2022-08-19T03:49:03;21.23;;;16.97;;
44456;SDS011;30159;49.316;8.558;2022-08-19T03:51:32;20.90;;;15.50;;
44456;SDS011;30159;49.316;8.558;2022-08-19T03:54:05;19.50;;;16.30;;
44456;SDS011;30159;49.316;8.558;2022-08-19T03:56:34;23.30;;;16.67;;
44456;SDS011;30159;49.316;8.558;2022-08-19T03:59:02;21.47;;;16.07;;
44456;SDS011;30159;49.316;8.558;2022-08-19T04:01:29;20.63;;;16.10;;
44456;SDS011;30159;49.316;8.558;2022-08-19T04:03:56;21.40;;;16.93;;
44456;SDS011;30159;49.316;8.558;2022-08-19T04:06:24;22.50;;;17.10;;
44456;SDS011;30159;49.316;8.558;2022-08-19T04:08:54;20.13;;;16.13;;
44456;SDS011;30159;49.316;8.558;2022-08-19T04:11:23;20.57;;;16.10;;
44456;SDS011;30159;49.316;8.558;2022-08-19T04:13:51;19.97;;;15.23;;
44456;SDS011;30159;49.316;8.558;2022-08-19T04:16:19;23.33;;;16.63;;
44456;SDS011;30159;49.316;8.558;2022-08-19T04:18:46;21.07;;;16.50;;
44456;SDS011;30159;49.316;8.558;2022-08-19T04:21:15;21.77;;;16.50;;
44456;SDS011;30159;49.316;8.558;2022-08-19T04:23:43;20.03;;;15.50;;
44456;SDS011;30159;49.316;8.558;2022-08-19T04:26:11;22.70;;;14.67;;
44456;SDS011;30159;49.316;8.558;2022-08-19T04:28:42;18.40;;;14.70;;
44456;SDS011;30159;49.316;8.558;2022-08-19T04:31:12;20.00;;;15.33;;
44456;SDS011;30159;49.316;8.558;2022-08-19T04:33:40;17.67;;;14.60;;
44456;SDS011;30159;49.316;8.558;2022-08-19T04:36:07;21.40;;;15.63;;
44456;SDS011;30159;49.316;8.558;2022-08-19T04:38:34;22.40;;;16.10;;
44456;SDS011;30159;49.316;8.558;2022-08-19T04:41:02;21.20;;;15.77;;
44456;SDS011;30159;49.316;8.558;2022-08-19T04:43:47;19.50;;;15.80;;
44456;SDS011;30159;49.316;8.558;2022-08-19T04:46:15;17.37;;;14.00;;
44456;SDS011;30159;49.316;8.558;2022-08-19T04:48:43;18.33;;;14.93;;
44456;SDS011;30159;49.316;8.558;2022-08-19T04:51:10;19.20;;;15.60;;
44456;SDS011;30159;49.316;8.558;2022-08-19T04:53:38;16.83;;;15.13;;
44456;SDS011;30159;49.316;8.558;2022-08-19T04:56:07;17.63;;;14.50;;
44456;SDS011;30159;49.316;8.558;2022-08-19T04:58:35;21.77;;;15.97;;
44456;SDS011;30159;49.316;8.558;2022-08-19T05:01:04;21.00;;;15.87;;
44456;SDS011;30159;49.316;8.558;2022-08-19T05:03:31;17.17;;;14.70;;
44456;SDS011;30159;49.316;8.558;2022-08-19T05:05:59;19.53;;;15.40;;
44456;SDS011;30159;49.316;8.558;2022-08-19T05:08:32;19.60;;;15.40;;
44456;SDS011;30159;49.316;8.558;2022-08-19T05:10:59;20.63;;;16.60;;
44456;SDS011;30159;49.316;8.558;2022-08-19T05:13:26;20.67;;;15.77;;
44456;SDS011;30159;49.316;8.558;2022-08-19T05:15:53;18.03;;;15.27;;
44456;SDS011;30159;49.316;8.558;2022-08-19T05:18:23;18.87;;;15.50;;
44456;SDS011;30159;49.316;8.558;2022-08-19T05:21:08;16.50;;;14.60;;
44456;SDS011;30159;49.316;8.558;2022-08-19T05:23:53;17.93;;;15.00;;
44456;SDS011;30159;49.316;8.558;2022-08-19T05:26:20;16.67;;;13.97;;
44456;SDS011;30159;49.316;8.558;2022-08-19T05:28:46;16.57;;;14.37;;
44456;SDS011;30159;49.316;8.558;2022-08-19T05:31:13;17.53;;;14.50;;
44456;SDS011;30159;49.316;8.558;2022-08-19T05:33:41;15.77;;;14.07;;
44456;SDS011;30159;49.316;8.558;2022-08-19T05:36:07;19.70;;;15.73;;
44456;SDS011;30159;49.316;8.558;2022-08-19T05:38:34;16.33;;;14.33;;
44456;SDS011;30159;49.316;8.558;2022-08-19T05:41:05;16.57;;;14.23;;
44456;SDS011;30159;49.316;8.558;2022-08-19T05:43:33;15.57;;;13.90;;
44456;SDS011;30159;49.316;8.558;2022-08-19T05:46:00;16.77;;;14.00;;
44456;SDS011;30159;49.316;8.558;2022-08-19T05:48:26;17.53;;;13.73;;
44456;SDS011;30159;49.316;8.558;2022-08-19T05:50:54;15.67;;;13.60;;
44456;SDS011;30159;49.316;8.558;2022-08-19T05:53:21;15.57;;;13.93;;
44456;SDS011;30159;49.316;8.558;2022-08-19T05:55:48;15.37;;;13.80;;
44456;SDS011;30159;49.316;8.558;2022-08-19T05:58:15;14.47;;;12.97;;
44456;SDS011;30159;49.316;8.558;2022-08-19T06:00:42;15.90;;;13.70;;
44456;SDS011;30159;49.316;8.558;2022-08-19T06:03:09;18.00;;;13.53;;
44456;SDS011;30159;49.316;8.558;2022-08-19T06:05:36;19.47;;;13.27;;
44456;SDS011;30159;49.316;8.558;2022-08-19T06:08:04;15.20;;;12.77;;
44456;SDS011;30159;49.316;8.558;2022-08-19T06:10:32;14.70;;;13.30;;
44456;SDS011;30159;49.316;8.558;2022-08-19T06:12:59;15.63;;;13.07;;
44456;SDS011;30159;49.316;8.558;2022-08-19T06:15:25;13.53;;;12.23;;
44456;SDS011;30159;49.316;8.558;2022-08-19T06:17:53;14.50;;;12.50;;
44456;SDS011;30159;49.316;8.558;2022-08-19T06:20:20;13.53;;;12.27;;
44456;SDS011;30159;49.316;8.558;2022-08-19T06:22:47;12.83;;;11.50;;
44456;SDS011;30159;49.316;8.558;2022-08-19T06:25:17;13.87;;;12.43;;
44456;SDS011;30159;49.316;8.558;2022-08-19T06:27:44;14.10;;;12.70;;
44456;SDS011;30159;49.316;8.558;2022-08-19T06:30:11;14.73;;;13.33;;
44456;SDS011;30159;49.316;8.558;2022-08-19T06:32:39;12.97;;;11.67;;
44456;SDS011;30159;49.316;8.558;2022-08-19T06:35:06;12.77;;;11.53;;
44456;SDS011;30159;49.316;8.558;2022-08-19T06:37:33;11.90;;;10.80;;
44456;SDS011;30159;49.316;8.558;2022-08-19T06:39:59;14.57;;;12.33;;
44456;SDS011;30159;49.316;8.558;2022-08-19T06:42:27;14.70;;;13.10;;
44456;SDS011;30159;49.316;8.558;2022-08-19T06:44:54;14.83;;;12.47;;
44456;SDS011;30159;49.316;8.558;2022-08-19T06:47:20;13.77;;;12.37;;
44456;SDS011;30159;49.316;8.558;2022-08-19T06:49:47;12.50;;;11.37;;
44456;SDS011;30159;49.316;8.558;2022-08-19T06:52:14;12.83;;;11.73;;
44456;SDS011;30159;49.316;8.558;2022-08-19T06:54:41;13.30;;;11.90;;
44456;SDS011;30159;49.316;8.558;2022-08-19T06:57:08;14.63;;;11.70;;
44456;SDS011;30159;49.316;8.558;2022-08-19T06:59:41;13.67;;;12.27;;
44456;SDS011;30159;49.316;8.558;2022-08-19T07:02:07;13.13;;;11.67;;
44456;SDS011;30159;49.316;8.558;2022-08-19T07:04:35;13.80;;;11.27;;
44456;SDS011;30159;49.316;8.558;2022-08-19T07:07:04;12.97;;;11.77;;
44456;SDS011;30159;49.316;8.558;2022-08-19T07:09:33;13.73;;;12.23;;
44456;SDS011;30159;49.316;8.558;2022-08-19T07:12:02;12.43;;;11.23;;
44456;SDS011;30159;49.316;8.558;2022-08-19T07:14:30;12.47;;;11.30;;
44456;SDS011;30159;49.316;8.558;2022-08-19T07:16:58;12.90;;;11.60;;
44456;SDS011;30159;49.316;8.558;2022-08-19T07:19:25;11.20;;;10.20;;
44456;SDS011;30159;49.316;8.558;2022-08-19T07:21:53;12.20;;;10.97;;
44456;SDS011;30159;49.316;8.558;2022-08-19T07:24:21;12.37;;;11.07;;
44456;SDS011;30159;49.316;8.558;2022-08-19T07:26:49;11.77;;;10.67;;
44456;SDS011;30159;49.316;8.558;2022-08-19T07:29:17;11.93;;;10.67;;
44456;SDS011;30159;49.316;8.558;2022-08-19T07:31:48;12.30;;;11.10;;
44456;SDS011;30159;49.316;8.558;2022-08-19T07:34:16;10.90;;;9.90;;
44456;SDS011;30159;49.316;8.558;2022-08-19T07:36:44;11.80;;;10.60;;
44456;SDS011;30159;49.316;8.558;2022-08-19T07:39:12;11.30;;;10.30;;
44456;SDS011;30159;49.316;8.558;2022-08-19T07:41:41;11.80;;;10.60;;
44456;SDS011;30159;49.316;8.558;2022-08-19T07:44:08;11.33;;;10.17;;
44456;SDS011;30159;49.316;8.558;2022-08-19T07:46:37;11.00;;;9.90;;
44456;SDS011;30159;49.316;8.558;2022-08-19T07:49:06;11.23;;;9.67;;
44456;SDS011;30159;49.316;8.558;2022-08-19T07:51:46;11.83;;;10.63;;
44456;SDS011;30159;49.316;8.558;2022-08-19T07:54:13;10.50;;;9.40;;
44456;SDS011;30159;49.316;8.558;2022-08-19T07:56:40;13.87;;;11.57;;
44456;SDS011;30159;49.316;8.558;2022-08-19T07:59:07;10.97;;;9.97;;
44456;SDS011;30159;49.316;8.558;2022-08-19T08:01:34;10.60;;;9.60;;
44456;SDS011;30159;49.316;8.558;2022-08-19T08:04:01;10.93;;;9.93;;
44456;SDS011;30159;49.316;8.558;2022-08-19T08:06:46;10.63;;;9.73;;
44456;SDS011;30159;49.316;8.558;2022-08-19T08:09:32;10.17;;;9.17;;
44456;SDS011;30159;49.316;8.558;2022-08-19T08:12:01;10.00;;;9.13;;
44456;SDS011;30159;49.316;8.558;2022-08-19T08:14:32;12.20;;;10.97;;
44456;SDS011;30159;49.316;8.558;2022-08-19T08:17:02;10.40;;;9.50;;
44456;SDS011;30159;49.316;8.558;2022-08-19T08:19:29;9.87;;;8.93;;
44456;SDS011;30159;49.316;8.558;2022-08-19T08:21:58;9.77;;;8.87;;
44456;SDS011;30159;49.316;8.558;2022-08-19T08:24:26;10.00;;;9.10;;
44456;SDS011;30159;49.316;8.558;2022-08-19T08:26:54;9.00;;;8.20;;
44456;SDS011;30159;49.316;8.558;2022-08-19T08:29:21;8.63;;;7.83;;
44456;SDS011;30159;49.316;8.558;2022-08-19T08:31:47;8.37;;;7.53;;
44456;SDS011;30159;49.316;8.558;2022-08-19T08:34:14;7.80;;;7.20;;
44456;SDS011;30159;49.316;8.558;2022-08-19T08:36:42;7.20;;;6.70;;
44456;SDS011;30159;49.316;8.558;2022-08-19T08:39:13;6.00;;;5.50;;
44456;SDS011;30159;49.316;8.558;2022-08-19T08:41:43;6.17;;;5.73;;
44456;SDS011;30159;49.316;8.558;2022-08-19T08:44:19;6.37;;;5.87;;
44456;SDS011;30159;49.316;8.558;2022-08-19T08:46:48;6.17;;;5.77;;
44456;SDS011;30159;49.316;8.558;2022-08-19T08:49:29;6.03;;;5.60;;
44456;SDS011;30159;49.316;8.558;2022-08-19T08:52:02;6.43;;;5.93;;
44456;SDS011;30159;49.316;8.558;2022-08-19T08:54:33;5.30;;;4.87;;
44456;SDS011;30159;49.316;8.558;2022-08-19T08:57:03;5.40;;;4.90;;
44456;SDS011;30159;49.316;8.558;2022-08-19T08:59:34;5.00;;;4.70;;
44456;SDS011;30159;49.316;8.558;2022-08-19T09:02:05;6.80;;;5.03;;
44456;SDS011;30159;49.316;8.558;2022-08-19T09:04:33;4.90;;;4.70;;
44456;SDS011;30159;49.316;8.558;2022-08-19T09:07:03;6.60;;;4.97;;
44456;SDS011;30159;49.316;8.558;2022-08-19T09:09:46;4.87;;;4.57;;
44456;SDS011;30159;49.316;8.558;2022-08-19T09:12:17;5.33;;;4.90;;
44456;SDS011;30159;49.316;8.558;2022-08-19T09:14:49;4.10;;;3.90;;
44456;SDS011;30159;49.316;8.558;2022-08-19T09:17:20;4.43;;;4.13;;
44456;SDS011;30159;49.316;8.558;2022-08-19T09:19:56;3.80;;;3.60;;
44456;SDS011;30159;49.316;8.558;2022-08-19T09:22:25;5.73;;;5.33;;
44456;SDS011;30159;49.316;8.558;2022-08-19T09:24:53;5.83;;;5.43;;
44456;SDS011;30159;49.316;8.558;2022-08-19T09:27:21;5.57;;;5.20;;
44456;SDS011;30159;49.316;8.558;2022-08-19T09:29:50;4.43;;;4.23;;
44456;SDS011;30159;49.316;8.558;2022-08-19T09:32:17;4.50;;;4.27;;
44456;SDS011;30159;49.316;8.558;2022-08-19T09:34:43;4.17;;;3.97;;
44456;SDS011;30159;49.316;8.558;2022-08-19T09:37:10;5.40;;;5.00;;
44456;SDS011;30159;49.316;8.558;2022-08-19T09:39:37;5.30;;;5.00;;
44456;SDS011;30159;49.316;8.558;2022-08-19T09:42:07;5.20;;;4.80;;
44456;SDS011;30159;49.316;8.558;2022-08-19T09:44:37;5.47;;;5.17;;
44456;SDS011;30159;49.316;8.558;2022-08-19T09:47:04;5.90;;;5.50;;
44456;SDS011;30159;49.316;8.558;2022-08-19T09:49:31;5.43;;;5.13;;
44456;SDS011;30159;49.316;8.558;2022-08-19T09:51:57;6.00;;;5.60;;
44456;SDS011;30159;49.316;8.558;2022-08-19T09:54:24;3.67;;;3.47;;
44456;SDS011;30159;49.316;8.558;2022-08-19T09:56:50;5.43;;;5.13;;
44456;SDS011;30159;49.316;8.558;2022-08-19T09:59:18;6.63;;;6.07;;
44456;SDS011;30159;49.316;8.558;2022-08-19T10:01:45;6.50;;;6.10;;
44456;SDS011;30159;49.316;8.558;2022-08-19T10:04:12;5.60;;;5.30;;
44456;SDS011;30159;49.316;8.558;2022-08-19T10:06:39;5.60;;;5.30;;
44456;SDS011;30159;49.316;8.558;2022-08-19T10:09:07;5.27;;;4.97;;
44456;SDS011;30159;49.316;8.558;2022-08-19T10:11:35;5.33;;;5.03;;
44456;SDS011;30159;49.316;8.558;2022-08-19T10:14:03;5.90;;;5.50;;
44456;SDS011;30159;49.316;8.558;2022-08-19T10:16:33;6.60;;;6.23;;
44456;SDS011;30159;49.316;8.558;2022-08-19T10:19:01;6.70;;;6.17;;
44456;SDS011;30159;49.316;8.558;2022-08-19T10:21:29;7.00;;;6.60;;
44456;SDS011;30159;49.316;8.558;2022-08-19T10:23:57;7.00;;;6.50;;
44456;SDS011;30159;49.316;8.558;2022-08-19T10:26:28;7.27;;;6.67;;
44456;SDS011;30159;49.316;8.558;2022-08-19T10:28:56;7.20;;;6.80;;
44456;SDS011;30159;49.316;8.558;2022-08-19T10:31:24;8.90;;;8.20;;
44456;SDS011;30159;49.316;8.558;2022-08-19T10:33:53;8.10;;;7.50;;
44456;SDS011;30159;49.316;8.558;2022-08-19T10:36:23;7.47;;;6.97;;
44456;SDS011;30159;49.316;8.558;2022-08-19T10:38:53;7.40;;;6.93;;
44456;SDS011;30159;49.316;8.558;2022-08-19T10:41:24;7.87;;;7.37;;
44456;SDS011;30159;49.316;8.558;2022-08-19T10:43:52;7.70;;;7.07;;
44456;SDS011;30159;49.316;8.558;2022-08-19T10:46:21;6.90;;;6.40;;
44456;SDS011;30159;49.316;8.558;2022-08-19T10:48:49;6.93;;;6.43;;
44456;SDS011;30159;49.316;8.558;2022-08-19T10:51:17;6.77;;;6.37;;
44456;SDS011;30159;49.316;8.558;2022-08-19T10:54:02;6.60;;;6.30;;
44456;SDS011;30159;49.316;8.558;2022-08-19T10:56:29;6.67;;;6.37;;
44456;SDS011;30159;49.316;8.558;2022-08-19T10:59:14;7.83;;;7.37;;
44456;SDS011;30159;49.316;8.558;2022-08-19T11:01:42;7.87;;;7.43;;
44456;SDS011;30159;49.316;8.558;2022-08-19T11:04:10;8.00;;;7.47;;
44456;SDS011;30159;49.316;8.558;2022-08-19T11:06:40;8.37;;;7.87;;
44456;SDS011;30159;49.316;8.558;2022-08-19T11:09:09;6.87;;;6.30;;
44456;SDS011;30159;49.316;8.558;2022-08-19T11:11:35;8.70;;;8.00;;
44456;SDS011;30159;49.316;8.558;2022-08-19T11:14:05;7.83;;;7.43;;
44456;SDS011;30159;49.316;8.558;2022-08-19T11:16:32;7.07;;;6.67;;
44456;SDS011;30159;49.316;8.558;2022-08-19T11:18:59;7.30;;;6.70;;
44456;SDS011;30159;49.316;8.558;2022-08-19T11:21:26;8.03;;;7.53;;
44456;SDS011;30159;49.316;8.558;2022-08-19T11:23:59;7.70;;;7.30;;
44456;SDS011;30159;49.316;8.558;2022-08-19T11:26:27;7.50;;;7.10;;
44456;SDS011;30159;49.316;8.558;2022-08-19T11:28:55;7.17;;;6.67;;
44456;SDS011;30159;49.316;8.558;2022-08-19T11:31:23;8.57;;;8.07;;
44456;SDS011;30159;49.316;8.558;2022-08-19T11:33:52;8.17;;;7.70;;
44456;SDS011;30159;49.316;8.558;2022-08-19T11:36:18;7.97;;;7.57;;
44456;SDS011;30159;49.316;8.558;2022-08-19T11:38:46;8.60;;;8.17;;
44456;SDS011;30159;49.316;8.558;2022-08-19T11:41:15;9.57;;;9.00;;
44456;SDS011;30159;49.316;8.558;2022-08-19T11:43:43;8.67;;;8.27;;
44456;SDS011;30159;49.316;8.558;2022-08-19T11:46:11;9.40;;;8.80;;
44456;SDS011;30159;49.316;8.558;2022-08-19T11:48:39;9.03;;;8.20;;
44456;SDS011;30159;49.316;8.558;2022-08-19T11:51:07;8.90;;;8.23;;
44456;SDS011;30159;49.316;8.558;2022-08-19T11:53:36;9.73;;;9.13;;
44456;SDS011;30159;49.316;8.558;2022-08-19T11:56:03;9.57;;;8.90;;
44456;SDS011;30159;49.316;8.558;2022-08-19T11:58:32;10.37;;;9.63;;
44456;SDS011;30159;49.316;8.558;2022-08-19T12:01:00;7.90;;;7.50;;
44456;SDS011;30159;49.316;8.558;2022-08-19T12:03:26;8.47;;;8.00;;
44456;SDS011;30159;49.316;8.558;2022-08-19T12:05:54;8.73;;;8.17;;
44456;SDS011;30159;49.316;8.558;2022-08-19T12:08:21;7.53;;;7.17;;
44456;SDS011;30159;49.316;8.558;2022-08-19T12:10:48;8.10;;;7.60;;
44456;SDS011;30159;49.316;8.558;2022-08-19T12:13:15;7.20;;;6.90;;
44456;SDS011;30159;49.316;8.558;2022-08-19T12:15:45;5.47;;;5.20;;
44456;SDS011;30159;49.316;8.558;2022-08-19T12:18:13;5.50;;;5.20;;
44456;SDS011;30159;49.316;8.558;2022-08-19T12:20:40;5.80;;;5.60;;
44456;SDS011;30159;49.316;8.558;2022-08-19T12:23:10;5.90;;;5.60;;
44456;SDS011;30159;49.316;8.558;2022-08-19T12:25:37;5.40;;;5.10;;
44456;SDS011;30159;49.316;8.558;2022-08-19T12:28:16;4.80;;;4.60;;
44456;SDS011;30159;49.316;8.558;2022-08-19T12:30:45;5.67;;;5.40;;
44456;SDS011;30159;49.316;8.558;2022-08-19T12:33:11;5.63;;;5.40;;
44456;SDS011;30159;49.316;8.558;2022-08-19T12:35:39;5.83;;;5.63;;
44456;SDS011;30159;49.316;8.558;2022-08-19T12:38:06;7.30;;;6.80;;
44456;SDS011;30159;49.316;8.558;2022-08-19T12:40:32;6.60;;;6.20;;
44456;SDS011;30159;49.316;8.558;2022-08-19T12:42:59;4.80;;;4.60;;
44456;SDS011;30159;49.316;8.558;2022-08-19T12:45:26;5.47;;;5.17;;
44456;SDS011;30159;49.316;8.558;2022-08-19T12:47:54;4.90;;;4.70;;
44456;SDS011;30159;49.316;8.558;2022-08-19T12:50:21;5.03;;;4.80;;
44456;SDS011;30159;49.316;8.558;2022-08-19T12:52:47;5.00;;;4.80;;
44456;SDS011;30159;49.316;8.558;2022-08-19T12:55:14;3.90;;;3.70;;
44456;SDS011;30159;49.316;8.558;2022-08-19T12:57:43;4.40;;;4.10;;
44456;SDS011;30159;49.316;8.558;2022-08-19T13:00:11;3.80;;;3.60;;
44456;SDS011;30159;49.316;8.558;2022-08-19T13:02:40;4.30;;;4.10;;
44456;SDS011;30159;49.316;8.558;2022-08-19T13:05:12;4.10;;;3.77;;
44456;SDS011;30159;49.316;8.558;2022-08-19T13:07:42;4.27;;;4.07;;
44456;SDS011;30159;49.316;8.558;2022-08-19T13:10:10;4.00;;;3.80;;
44456;SDS011;30159;49.316;8.558;2022-08-19T13:12:40;4.30;;;4.00;;
44456;SDS011;30159;49.316;8.558;2022-08-19T13:15:07;3.70;;;3.33;;
44456;SDS011;30159;49.316;8.558;2022-08-19T13:17:34;3.53;;;3.33;;
44456;SDS011;30159;49.316;8.558;2022-08-19T13:20:01;3.90;;;3.70;;
44456;SDS011;30159;49.316;8.558;2022-08-19T13:22:30;3.60;;;3.40;;
44456;SDS011;30159;49.316;8.558;2022-08-19T13:24:57;3.53;;;3.33;;
44456;SDS011;30159;49.316;8.558;2022-08-19T13:27:23;3.30;;;3.10;;
44456;SDS011;30159;49.316;8.558;2022-08-19T13:29:50;3.40;;;3.20;;
44456;SDS011;30159;49.316;8.558;2022-08-19T13:32:34;3.00;;;2.80;;
44456;SDS011;30159;49.316;8.558;2022-08-19T13:35:18;3.40;;;3.20;;
44456;SDS011;30159;49.316;8.558;2022-08-19T13:37:46;4.23;;;3.90;;
44456;SDS011;30159;49.316;8.558;2022-08-19T13:40:14;4.00;;;3.80;;
44456;SDS011;30159;49.316;8.558;2022-08-19T13:42:44;4.20;;;4.00;;
44456;SDS011;30159;49.316;8.558;2022-08-19T13:45:12;3.07;;;2.93;;
44456;SDS011;30159;49.316;8.558;2022-08-19T13:47:41;3.80;;;3.60;;
44456;SDS011;30159;49.316;8.558;2022-08-19T13:50:09;3.00;;;2.90;;
44456;SDS011;30159;49.316;8.558;2022-08-19T13:52:36;3.37;;;3.17;;
44456;SDS011;30159;49.316;8.558;2022-08-19T13:55:05;3.47;;;3.27;;
44456;SDS011;30159;49.316;8.558;2022-08-19T13:57:35;3.50;;;3.27;;
44456;SDS011;30159;49.316;8.558;2022-08-19T14:00:04;4.13;;;2.83;;
44456;SDS011;30159;49.316;8.558;2022-08-19T14:02:33;3.10;;;2.90;;
44456;SDS011;30159;49.316;8.558;2022-08-19T14:04:59;3.47;;;3.27;;
44456;SDS011;30159;49.316;8.558;2022-08-19T14:07:26;3.13;;;2.93;;
44456;SDS011;30159;49.316;8.558;2022-08-19T14:09:53;3.60;;;3.40;;
44456;SDS011;30159;49.316;8.558;2022-08-19T14:12:21;2.60;;;2.50;;
44456;SDS011;30159;49.316;8.558;2022-08-19T14:14:48;3.37;;;3.17;;
44456;SDS011;30159;49.316;8.558;2022-08-19T14:17:15;2.57;;;2.30;;
44456;SDS011;30159;49.316;8.558;2022-08-19T14:19:42;3.73;;;3.53;;
44456;SDS011;30159;49.316;8.558;2022-08-19T14:22:09;2.90;;;2.70;;
44456;SDS011;30159;49.316;8.558;2022-08-19T14:24:36;3.17;;;2.87;;
44456;SDS011;30159;49.316;8.558;2022-08-19T14:27:03;3.10;;;2.90;;
44456;SDS011;30159;49.316;8.558;2022-08-19T14:29:31;2.97;;;2.77;;
44456;SDS011;30159;49.316;8.558;2022-08-19T14:31:58;3.40;;;3.20;;
44456;SDS011;30159;49.316;8.558;2022-08-19T14:34:24;3.50;;;3.30;;
44456;SDS011;30159;49.316;8.558;2022-08-19T14:36:51;3.43;;;3.23;;
44456;SDS011;30159;49.316;8.558;2022-08-19T14:39:18;3.10;;;2.90;;
44456;SDS011;30159;49.316;8.558;2022-08-19T14:41:45;3.53;;;3.33;;